Racecast

Landon Danielson

Temperance Bedford (MI) · 8 · SECMI D1MONROE · Compare head to head

Athlete rating 117.3 2020 XC season
Best race 118.7 XC
Races 27
Seasons 3 2018 — 2020

RankedNation #9237·MI #2420·Team #69 ?

Rating scale ?

Cross Country

2020 XC 113.2

Temperance Bedford (MI) · Grade 8

Date Meet Event Result Place Rating Difficulty PR/SR Flags
2020-10-14 Indian Creek OFFICIAL 3200m 14:28 32nd · 27th on team 117.3 +0.038 SR CSR RSR
2020-10-07 Hudson Mills Metropark - OFFICIAL 3218m 15:32.1 29th · 20th on team 115.4 +0.062 CSR
2020-09-24 Indian Creek OFFICIAL 3200m 15:21 31st · 24th on team 112.8 +0.038 SR CSR
2020-09-19 Indian Creek OFFICIAL 3218m 14:37 23rd · 20th on team 116.5 +0.038 ★PR ★CR SR CSR RSR
2020-09-16 Rolling Hills 3218m 16:05.4 28th · 25th on team 113.2 +0.077 ★CR SR CSR RSR
2020-09-09 Indian Creek OFFICIAL 3200m 15:39 27th · 27th on team 108.1 +0.038 SR CSR
2020-08-29 Indian Creek OFFICIAL 3200m 15:48 22nd · 22nd on team 108.8 +0.038 SR CSR RSR

2019 XC 108.0

Temperance Bedford (MI) · Grade 7

Date Meet Event Result Place Rating Difficulty PR/SR Flags
2019-10-12 Munson Park 3200m 14:42.7 69th · 26th on team 115.3 +0.034 ★CR CSR
2019-10-09 Indian Creek OFFICIAL 3200m 14:23 45th · 17th on team 118.7 +0.038 ★PR ★CR ★R SR CSR RSR
2019-10-05 Munson Park 3218m 15:18.1 88th · 26th on team 110.5 +0.034 CSR
2019-09-28 Lake Erie Metro Park OFFICIAL 3218m 15:16.8 125th · 30th on team 110.7 +0.034 CSR
2019-09-24 Hudson Mills Metropark - OFFICIAL 3218m 15:06 52nd · 17th on team 117.5 +0.062 ★CR R SR CSR RSR
2019-09-21 Maumee Bay State Park 3200m 17:10 134th · 29th on team 93.0 -0.033 ★CR CSR
2019-09-14 Ottawa Park Golf Course 3200m 14:57.3 76th · 28th on team 106.0 -0.037 PR ★CR SR CSR RSR
2019-09-07 Hedges Boyer Park 2816m 15:28.8 27th · 20th on team 92.7 ★PR ★CR SR CSR RSR

2018 XC 107.2

Temperance Bedford (MI) · Grade 6

Date Meet Event Result Place Rating Difficulty PR/SR Flags
2018-10-10 Saline High School 3200m 15:15.8 75th · 14th on team 111.0 +0.016 PR ★CR SR CSR
2018-10-06 Munson Park 3218m 15:05 59th · 20th on team 114.1 +0.034 ★CR R CSR RSR
2018-09-29 Lake Erie Metro Park OFFICIAL 3218m 15:11.6 122nd · 19th on team 112.1 +0.034 ★CR CSR
2018-09-25 Hudson Mills Metropark - OFFICIAL 3218m 16:15.6 58th · 12th on team 107.2 +0.062 CR CSR
2018-09-15 Ottawa Park Golf Course 3200m 17:01.8 26th · 26th on team 93.6 -0.037 CR CSR
2018-09-12 Tecumseh HS 3218m 14:50.9 51st · 13th on team 114.0 +0.036 PR ★CR R SR CSR RSR
2018-08-30 Eastwood HS 3200m 15:41 106th · 14th on team 98.5 -0.060 PR ★CR R SR CSR RSR

Track & Field

2019 TF 88.6

Temperance Bedford (MI) · Grade 6

Date Meet Event Result Place Rating Difficulty PR/SR Flags
2019-05-13 Lincoln MS @ Bedford MS 1600m 7:22.36 11th · 10th on team 91.7 -0.033 ★PR SR RSR
2019-05-13 Lincoln MS @ Bedford MS 800m 3:31.05 13th · 7th on team 87.2 -0.033 ★PR SR
2019-05-06 Ypsilanti MS @ Bedford 400m 1:28.13 17th · 15th on team -0.033 ★PR SR
2019-04-22 SEC-MS: Adrian @ Bedford 1600m 7:27.77 15th · 9th on team 90.1 -0.033 PR SR RSR
2019-04-22 SEC-MS: Adrian @ Bedford 800m 3:33.24 11th · 6th on team 85.5 -0.033 PR SR